Time;durP1;ratioP1;P1;durP2;ratioP2;P2;SDS_P1;SDS_P2;PMS_P1;PMS_P2;Temp;Humidity;BMP_temperature;BMP_pressure;BME280_temperature;BME280_humidity;BME280_pressure;Samples;Min_cycle;Max_cycle;Signal;HPM_P1;HPM_P2
2022/08/11 00:01:47;;;;;;;1.88;1.70;;;;;;;;;;5082272;28;20088;-73
2022/08/11 00:04:15;;;;;;;3.80;1.88;;;;;;;;;;5087016;28;20106;-73
2022/08/11 00:06:42;;;;;;;3.42;1.63;;;;;;;;;;5076389;28;20053;-73
2022/08/11 00:09:15;;;;;;;3.50;1.63;;;;;;;;;;5091977;28;20056;-73
2022/08/11 00:11:43;;;;;;;3.40;1.80;;;;;;;;;;5091704;28;20062;-73
2022/08/11 00:14:12;;;;;;;2.42;1.90;;;;;;;;;;5083253;28;20052;-74
2022/08/11 00:16:40;;;;;;;3.88;1.60;;;;;;;;;;5081378;28;20554;-74
2022/08/11 00:19:07;;;;;;;1.92;1.73;;;;;;;;;;5090440;28;20051;-73
2022/08/11 00:21:39;;;;;;;2.97;2.03;;;;;;;;;;5078683;28;20058;-74
2022/08/11 00:24:31;;;;;;;1.83;1.70;;;;;;;;;;5073987;28;20487;-73
2022/08/11 00:27:04;;;;;;;1.67;1.50;;;;;;;;;;5081097;28;20060;-73
2022/08/11 00:29:31;;;;;;;1.77;1.65;;;;;;;;;;5086407;28;20061;-74
2022/08/11 00:32:00;;;;;;;6.40;1.80;;;;;;;;;;5073711;28;20057;-74
2022/08/11 00:34:27;;;;;;;2.55;1.52;;;;;;;;;;5087210;28;20510;-74
2022/08/11 00:36:59;;;;;;;2.13;1.92;;;;;;;;;;5075045;28;20360;-74
2022/08/11 00:39:26;;;;;;;2.53;1.70;;;;;;;;;;5086242;28;20056;-74
2022/08/11 00:42:09;;;;;;;6.38;2.10;;;;;;;;;;5098422;28;20206;-74
2022/08/11 00:44:55;;;;;;;4.60;2.17;;;;;;;;;;5090257;28;20059;-73
2022/08/11 00:47:30;;;;;;;3.67;2.13;;;;;;;;;;5085316;28;20488;-74
2022/08/11 00:50:03;;;;;;;2.30;2.10;;;;;;;;;;5074431;28;20443;-74
2022/08/11 00:52:46;;;;;;;2.45;1.88;;;;;;;;;;5071966;28;20139;-75
2022/08/11 00:55:32;;;;;;;2.33;1.90;;;;;;;;;;5087431;28;20049;-74
2022/08/11 00:58:10;;;;;;;2.80;2.05;;;;;;;;;;5077013;28;20053;-74
2022/08/11 01:00:56;;;;;;;2.50;2.03;;;;;;;;;;5091234;28;20055;-74
2022/08/11 01:03:34;;;;;;;3.53;1.80;;;;;;;;;;5075242;28;20134;-75
2022/08/11 01:06:18;;;;;;;9.02;2.30;;;;;;;;;;5088982;28;20052;-75
2022/08/11 01:08:48;;;;;;;2.35;1.80;;;;;;;;;;5076724;28;20549;-75
2022/08/11 01:11:20;;;;;;;1.85;1.70;;;;;;;;;;5095682;28;20480;-74
2022/08/11 01:14:00;;;;;;;4.53;1.95;;;;;;;;;;5075407;28;20500;-74
2022/08/11 01:16:26;;;;;;;4.25;2.08;;;;;;;;;;5090745;28;20059;-74
2022/08/11 01:19:15;;;;;;;2.17;1.80;;;;;;;;;;5091463;28;20064;-74
2022/08/11 01:22:00;;;;;;;2.22;1.83;;;;;;;;;;5076338;28;20416;-74
2022/08/11 01:24:45;;;;;;;4.37;2.07;;;;;;;;;;5081667;28;20059;-74
2022/08/11 01:27:14;;;;;;;2.80;2.13;;;;;;;;;;5080951;28;20312;-74
2022/08/11 01:30:03;;;;;;;3.15;2.38;;;;;;;;;;5076096;28;20477;-74
2022/08/11 01:32:48;;;;;;;3.40;2.00;;;;;;;;;;5090368;28;20052;-74
2022/08/11 01:35:33;;;;;;;3.72;2.30;;;;;;;;;;5089996;28;20092;-74
2022/08/11 01:38:19;;;;;;;3.08;2.25;;;;;;;;;;5071988;28;20049;-74
2022/08/11 01:40:51;;;;;;;7.95;2.47;;;;;;;;;;5083471;28;20495;-75
2022/08/11 01:46:19;;;;;;;4.00;2.53;;;;;;;;;;5083900;28;21013;-74
2022/08/11 01:49:08;;;;;;;3.20;2.25;;;;;;;;;;5085213;28;20059;-74
2022/08/11 01:51:54;;;;;;;2.97;1.98;;;;;;;;;;5082213;28;20929;-74
2022/08/11 01:54:27;;;;;;;2.75;2.20;;;;;;;;;;5085871;28;20088;-74
2022/08/11 01:57:12;;;;;;;3.65;1.90;;;;;;;;;;5076125;28;20052;-74
2022/08/11 01:59:48;;;;;;;2.58;2.38;;;;;;;;;;5089076;28;20132;-75
2022/08/11 02:02:46;;;;;;;2.50;2.20;;;;;;;;;;5078222;28;20052;-74
2022/08/11 02:05:31;;;;;;;2.90;2.60;;;;;;;;;;5092399;28;20526;-75
2022/08/11 02:07:57;;;;;;;2.42;2.22;;;;;;;;;;5078422;28;20086;-74
2022/08/11 02:13:46;;;;;;;4.82;2.90;;;;;;;;;;5088781;28;20508;-75
2022/08/11 02:16:26;;;;;;;2.33;2.05;;;;;;;;;;5072250;28;20061;-75
2022/08/11 02:25:18;;;;;;;3.63;2.87;;;;;;;;;;5082981;28;20106;-76
2022/08/11 02:28:03;;;;;;;4.55;2.85;;;;;;;;;;5070887;28;20061;-75
2022/08/11 02:30:38;;;;;;;2.85;2.65;;;;;;;;;;5079406;28;20565;-75
2022/08/11 02:33:21;;;;;;;3.33;2.72;;;;;;;;;;5088024;28;20058;-75
2022/08/11 02:36:02;;;;;;;3.63;2.38;;;;;;;;;;5082246;28;20058;-75
2022/08/11 02:38:31;;;;;;;4.13;2.95;;;;;;;;;;5081282;28;20056;-74
2022/08/11 02:44:22;;;;;;;8.18;2.80;;;;;;;;;;5074537;28;20045;-75
2022/08/11 02:46:59;;;;;;;3.28;2.78;;;;;;;;;;5079058;28;20053;-75
2022/08/11 02:49:53;;;;;;;6.00;3.00;;;;;;;;;;5082775;28;20061;-75
2022/08/11 02:52:59;;;;;;;3.25;2.90;;;;;;;;;;5090171;28;20507;-75
2022/08/11 02:55:29;;;;;;;3.65;2.85;;;;;;;;;;5080917;28;20057;-76
2022/08/11 02:58:20;;;;;;;3.78;2.88;;;;;;;;;;5091760;28;20083;-75
2022/08/11 03:00:56;;;;;;;2.97;2.60;;;;;;;;;;5094153;28;20526;-75
2022/08/11 03:03:38;;;;;;;3.15;2.85;;;;;;;;;;5086178;28;20053;-75
2022/08/11 03:06:34;;;;;;;3.75;2.90;;;;;;;;;;5074839;28;20045;-76
2022/08/11 03:09:00;;;;;;;3.33;2.85;;;;;;;;;;5061928;28;20052;-75
2022/08/11 03:17:23;;;;;;;3.17;2.78;;;;;;;;;;5091375;28;20048;-75
2022/08/11 03:20:08;;;;;;;4.80;2.90;;;;;;;;;;5090474;28;20488;-75
2022/08/11 03:22:58;;;;;;;3.78;2.80;;;;;;;;;;5094598;28;20143;-76
2022/08/11 03:25:43;;;;;;;3.20;2.65;;;;;;;;;;5111164;28;20056;-75
2022/08/11 03:28:27;;;;;;;3.58;2.63;;;;;;;;;;5074241;28;20140;-75
2022/08/11 03:31:05;;;;;;;4.70;2.85;;;;;;;;;;5075962;28;20055;-75
2022/08/11 03:36:46;;;;;;;3.72;2.63;;;;;;;;;;5080203;28;20044;-74
2022/08/11 03:39:51;;;;;;;4.03;3.00;;;;;;;;;;5075419;28;20832;-75
2022/08/11 03:42:40;;;;;;;3.30;2.90;;;;;;;;;;5090561;28;20056;-75
2022/08/11 03:45:24;;;;;;;5.72;2.92;;;;;;;;;;5088840;27;20056;-74
2022/08/11 03:48:09;;;;;;;3.65;3.05;;;;;;;;;;5074246;28;20048;-74
2022/08/11 03:50:41;;;;;;;4.03;2.72;;;;;;;;;;5074822;28;20057;-74
2022/08/11 03:53:26;;;;;;;4.05;2.88;;;;;;;;;;5094417;28;20087;-74
2022/08/11 03:56:11;;;;;;;4.78;3.03;;;;;;;;;;5082879;28;20051;-75
2022/08/11 03:58:45;;;;;;;4.00;3.03;;;;;;;;;;5081099;28;20502;-74
2022/08/11 04:01:20;;;;;;;3.92;2.90;;;;;;;;;;5101371;28;20139;-74
2022/08/11 04:03:49;;;;;;;3.88;2.88;;;;;;;;;;5073048;28;20049;-75
2022/08/11 04:06:30;;;;;;;3.65;2.80;;;;;;;;;;5072865;28;20057;-74
2022/08/11 04:09:18;;;;;;;5.60;2.78;;;;;;;;;;5073813;28;20053;-75
2022/08/11 04:12:10;;;;;;;5.32;3.20;;;;;;;;;;5075214;28;20061;-75
2022/08/11 04:18:08;;;;;;;3.38;3.08;;;;;;;;;;5094325;27;20060;-75
2022/08/11 04:20:52;;;;;;;3.85;3.30;;;;;;;;;;5049208;28;20053;-75
2022/08/11 04:23:20;;;;;;;4.32;2.95;;;;;;;;;;5072839;28;20061;-75
2022/08/11 04:26:25;;;;;;;4.05;3.47;;;;;;;;;;5074342;28;20052;-76
2022/08/11 04:29:10;;;;;;;6.13;3.40;;;;;;;;;;5073991;28;20059;-74
2022/08/11 04:31:41;;;;;;;4.28;3.10;;;;;;;;;;5073923;28;20053;-74
2022/08/11 04:34:31;;;;;;;4.20;3.00;;;;;;;;;;5076801;28;20130;-74
2022/08/11 04:37:43;;;;;;;3.90;3.30;;;;;;;;;;5079118;28;20144;-75
2022/08/11 04:40:03;;;;;;;3.67;3.38;;;;;;;;;;5091629;28;20048;-74
2022/08/11 04:45:55;;;;;;;4.60;3.25;;;;;;;;;;5099359;28;20080;-75
2022/08/11 05:03:09;;;;;;;3.27;2.97;;;;;;;;;;5083523;28;20412;-74
2022/08/11 05:05:54;;;;;;;4.07;3.30;;;;;;;;;;5090845;28;20057;-74
2022/08/11 05:08:49;;;;;;;4.05;2.92;;;;;;;;;;5074820;28;20492;-74
2022/08/11 05:11:18;;;;;;;3.53;3.22;;;;;;;;;;5076596;28;20075;-74
2022/08/11 05:36:53;;;;;;;5.05;3.47;;;;;;;;;;5079986;28;20132;-74
2022/08/11 05:56:58;;;;;;;7.30;3.78;;;;;;;;;;5089836;28;20055;-75
2022/08/11 05:59:27;;;;;;;4.00;3.60;;;;;;;;;;5072318;28;20057;-75
2022/08/11 06:01:58;;;;;;;6.20;3.85;;;;;;;;;;5087460;28;20059;-75
2022/08/11 06:04:26;;;;;;;6.07;4.22;;;;;;;;;;5086948;28;20107;-75
2022/08/11 06:06:56;;;;;;;5.68;3.53;;;;;;;;;;5091756;28;20568;-73
2022/08/11 06:09:46;;;;;;;4.53;3.58;;;;;;;;;;5092035;28;20357;-74
2022/08/11 06:12:18;;;;;;;5.00;3.55;;;;;;;;;;5088434;28;20500;-76
2022/08/11 06:14:45;;;;;;;5.95;3.70;;;;;;;;;;5095449;28;20049;-73
2022/08/11 06:17:12;;;;;;;6.63;5.13;;;;;;;;;;5088411;28;20963;-72
2022/08/11 06:19:40;;;;;;;3.72;3.28;;;;;;;;;;5088858;28;20048;-72
2022/08/11 06:22:08;;;;;;;3.85;3.45;;;;;;;;;;5094766;28;20063;-74
2022/08/11 06:24:36;;;;;;;6.60;3.45;;;;;;;;;;5095402;28;20054;-73
2022/08/11 06:27:05;;;;;;;5.32;3.33;;;;;;;;;;5094077;28;20045;-74
2022/08/11 06:29:44;;;;;;;4.18;3.30;;;;;;;;;;5095784;28;20049;-74
2022/08/11 06:32:14;;;;;;;3.35;2.80;;;;;;;;;;5092471;28;20080;-74
2022/08/11 06:34:58;;;;;;;4.68;3.47;;;;;;;;;;5093080;28;20057;-76
2022/08/11 06:37:38;;;;;;;4.10;3.25;;;;;;;;;;5095968;28;20053;-75
2022/08/11 06:40:15;;;;;;;5.82;3.60;;;;;;;;;;5091472;28;20049;-74
2022/08/11 06:43:01;;;;;;;10.25;3.75;;;;;;;;;;5084194;28;20053;-73
2022/08/11 06:45:27;;;;;;;6.88;3.25;;;;;;;;;;5094157;28;20055;-73
2022/08/11 06:47:54;;;;;;;4.50;3.63;;;;;;;;;;5099036;28;20483;-72
2022/08/11 06:53:09;;;;;;;5.78;3.33;;;;;;;;;;5097440;27;20045;-70
2022/08/11 07:01:15;;;;;;;2.97;2.65;;;;;;;;;;5092162;28;20093;-72
2022/08/11 07:03:44;;;;;;;8.40;3.65;;;;;;;;;;5090217;28;20057;-74
2022/08/11 07:06:28;;;;;;;3.72;2.78;;;;;;;;;;5095195;28;20131;-75
2022/08/11 07:30:16;;;;;;;3.13;2.60;;;;;;;;;;5094318;28;20052;-76
2022/08/11 07:32:50;;;;;;;4.55;3.20;;;;;;;;;;5075555;28;20049;-73
2022/08/11 07:35:19;;;;;;;8.10;3.35;;;;;;;;;;5087443;28;20508;-73
2022/08/11 07:37:51;;;;;;;4.63;2.65;;;;;;;;;;5090606;28;20056;-72
2022/08/11 07:40:28;;;;;;;4.90;2.20;;;;;;;;;;5090641;28;20044;-72
2022/08/11 07:42:54;;;;;;;4.43;2.92;;;;;;;;;;5083754;28;20419;-72
2022/08/11 07:53:40;;;;;;;3.35;2.72;;;;;;;;;;5085634;28;20647;-71
2022/08/11 07:56:26;;;;;;;5.18;3.15;;;;;;;;;;5084651;28;20055;-70
2022/08/11 08:18:51;;;;;;;2.92;2.33;;;;;;;;;;5081013;28;20268;-70
2022/08/11 08:21:17;;;;;;;2.80;2.45;;;;;;;;;;5082076;28;20052;-71
2022/08/11 08:23:45;;;;;;;12.98;3.20;;;;;;;;;;5092590;28;20052;-71
2022/08/11 08:31:47;;;;;;;4.32;2.42;;;;;;;;;;5101450;28;20058;-70
2022/08/11 08:34:14;;;;;;;4.80;2.40;;;;;;;;;;5083345;27;20061;-71
2022/08/11 08:36:41;;;;;;;3.42;2.38;;;;;;;;;;5086390;28;20135;-70
2022/08/11 08:39:08;;;;;;;2.70;2.20;;;;;;;;;;5073604;28;20048;-70
2022/08/11 08:41:35;;;;;;;3.85;2.50;;;;;;;;;;5090052;28;20057;-71
2022/08/11 08:44:05;;;;;;;5.68;2.60;;;;;;;;;;5090761;28;20049;-72
2022/08/11 08:46:53;;;;;;;2.63;2.42;;;;;;;;;;5089488;28;20059;-73
2022/08/11 08:49:30;;;;;;;3.08;2.35;;;;;;;;;;5092973;28;20092;-73
2022/08/11 08:52:01;;;;;;;3.13;2.17;;;;;;;;;;5092600;28;20054;-73
2022/08/11 08:54:49;;;;;;;2.60;2.10;;;;;;;;;;5091224;28;20053;-73
2022/08/11 08:57:16;;;;;;;5.32;2.03;;;;;;;;;;5091901;28;20419;-73
2022/08/11 08:59:44;;;;;;;4.45;2.20;;;;;;;;;;5084224;28;20056;-73
2022/08/11 09:02:18;;;;;;;2.38;1.83;;;;;;;;;;5092601;28;20132;-72
2022/08/11 09:05:07;;;;;;;2.70;2.30;;;;;;;;;;5091919;28;20073;-72
2022/08/11 09:07:34;;;;;;;4.28;2.13;;;;;;;;;;5088913;28;20490;-71
2022/08/11 09:10:06;;;;;;;4.63;2.22;;;;;;;;;;5072113;28;20172;-71
2022/08/11 09:12:33;;;;;;;2.08;1.90;;;;;;;;;;5072423;28;20063;-72
2022/08/11 09:15:04;;;;;;;2.33;2.13;;;;;;;;;;5072023;28;20044;-72
2022/08/11 09:17:34;;;;;;;2.55;2.30;;;;;;;;;;5075926;28;20139;-71
2022/08/11 09:20:06;;;;;;;5.57;2.20;;;;;;;;;;5092461;28;20052;-72
2022/08/11 09:28:28;;;;;;;4.13;1.90;;;;;;;;;;5092505;28;20052;-70
2022/08/11 09:30:55;;;;;;;3.53;2.42;;;;;;;;;;5101000;28;20401;-72
2022/08/11 09:33:23;;;;;;;3.33;2.40;;;;;;;;;;5097196;28;20049;-71
2022/08/11 09:35:51;;;;;;;2.72;2.20;;;;;;;;;;5073180;28;20056;-70
2022/08/11 09:41:05;;;;;;;2.25;2.10;;;;;;;;;;5086230;28;20149;-72
2022/08/11 09:46:23;;;;;;;4.45;2.22;;;;;;;;;;5073819;28;20183;-70
2022/08/11 09:48:49;;;;;;;2.95;2.00;;;;;;;;;;5075352;28;20416;-70
2022/08/11 09:51:16;;;;;;;5.60;2.88;;;;;;;;;;5088648;28;20067;-69
2022/08/11 09:53:43;;;;;;;6.53;2.40;;;;;;;;;;5083326;28;20049;-71
2022/08/11 09:59:17;;;;;;;4.47;2.28;;;;;;;;;;5083229;28;20084;-72
2022/08/11 10:01:48;;;;;;;3.50;2.25;;;;;;;;;;5092451;28;20063;-72
2022/08/11 10:04:16;;;;;;;4.20;2.10;;;;;;;;;;5078031;28;20496;-72
2022/08/11 10:07:02;;;;;;;6.68;2.28;;;;;;;;;;5082266;28;20049;-71
2022/08/11 10:09:35;;;;;;;2.75;1.85;;;;;;;;;;5075085;28;20151;-71
2022/08/11 10:12:03;;;;;;;4.60;2.50;;;;;;;;;;5087527;28;20062;-73
2022/08/11 10:17:17;;;;;;;5.53;2.00;;;;;;;;;;5091231;28;20560;-71
2022/08/11 10:19:46;;;;;;;3.55;2.10;;;;;;;;;;5095475;28;20056;-71
2022/08/11 10:28:02;;;;;;;3.22;2.00;;;;;;;;;;5087863;28;20497;-71
2022/08/11 10:36:26;;;;;;;2.10;1.73;;;;;;;;;;5094919;28;20079;-72
2022/08/11 10:38:53;;;;;;;1.70;1.60;;;;;;;;;;5094578;28;20476;-73
2022/08/11 10:44:24;;;;;;;2.00;1.70;;;;;;;;;;5106235;27;20046;-72
2022/08/11 10:49:36;;;;;;;3.22;1.50;;;;;;;;;;5081831;28;20083;-72
2022/08/11 11:00:30;;;;;;;1.75;1.58;;;;;;;;;;5095161;28;20452;-71
2022/08/11 11:02:59;;;;;;;4.80;1.77;;;;;;;;;;5094338;28;20160;-73
2022/08/11 11:05:46;;;;;;;3.17;1.60;;;;;;;;;;5089367;27;20053;-72
2022/08/11 11:11:19;;;;;;;3.03;1.45;;;;;;;;;;5074814;28;20609;-74
2022/08/11 11:19:37;;;;;;;4.97;1.75;;;;;;;;;;5072763;28;20137;-74
2022/08/11 11:22:37;;;;;;;1.63;1.52;;;;;;;;;;5094209;28;20053;-74
2022/08/11 11:25:11;;;;;;;2.67;1.80;;;;;;;;;;5092244;28;20136;-72
2022/08/11 11:27:47;;;;;;;8.93;2.08;;;;;;;;;;5092772;28;20156;-72
2022/08/11 11:30:14;;;;;;;1.70;1.60;;;;;;;;;;5092238;28;20057;-72
2022/08/11 11:33:10;;;;;;;3.65;1.63;;;;;;;;;;5094409;28;20056;-74
2022/08/11 11:35:46;;;;;;;1.98;1.70;;;;;;;;;;5068943;28;20479;-73
2022/08/11 11:38:12;;;;;;;2.08;1.70;;;;;;;;;;5077048;28;20911;-73
2022/08/11 11:40:40;;;;;;;4.57;1.77;;;;;;;;;;5073580;28;20137;-72
2022/08/11 11:43:07;;;;;;;5.32;1.88;;;;;;;;;;5073687;28;20057;-70
2022/08/11 11:45:33;;;;;;;1.92;1.50;;;;;;;;;;5073154;28;20056;-76
2022/08/11 11:48:01;;;;;;;3.70;1.77;;;;;;;;;;5082659;28;20106;-76
2022/08/11 11:50:29;;;;;;;2.78;1.58;;;;;;;;;;5092420;28;20053;-75
2022/08/11 11:52:58;;;;;;;2.08;1.35;;;;;;;;;;5092974;28;20480;-73
2022/08/11 11:55:25;;;;;;;4.28;1.70;;;;;;;;;;5076863;28;20048;-74
2022/08/11 12:03:32;;;;;;;1.40;1.25;;;;;;;;;;5082433;28;20079;-75
2022/08/11 12:05:58;;;;;;;1.50;1.40;;;;;;;;;;5088786;28;20052;-74
2022/08/11 12:08:25;;;;;;;2.13;1.80;;;;;;;;;;5084998;28;20053;-72
2022/08/11 12:13:39;;;;;;;2.15;1.75;;;;;;;;;;5089428;28;20423;-72
2022/08/11 12:13:42;;;;;;;3.33;1.50;;;;;;;;;;5076046;28;20055;-73
2022/08/11 12:16:10;;;;;;;1.50;1.40;;;;;;;;;;5081573;28;20054;-74
2022/08/11 12:19:00;;;;;;;2.33;1.42;;;;;;;;;;5073471;28;20056;-74
2022/08/11 12:21:27;;;;;;;2.15;1.45;;;;;;;;;;5073840;28;20498;-75
2022/08/11 12:29:44;;;;;;;2.33;1.50;;;;;;;;;;5077120;28;20531;-72
2022/08/11 12:32:10;;;;;;;3.60;1.50;;;;;;;;;;5089556;28;20056;-73
2022/08/11 12:34:37;;;;;;;4.38;1.90;;;;;;;;;;5093262;28;20056;-73
2022/08/11 12:37:05;;;;;;;2.88;1.70;;;;;;;;;;5090285;28;20103;-71
2022/08/11 12:45:30;;;;;;;1.60;1.50;;;;;;;;;;5092568;28;20059;-72
2022/08/11 12:54:24;;;;;;;3.17;1.40;;;;;;;;;;5081877;28;20052;-72
2022/08/11 13:05:13;;;;;;;1.52;1.42;;;;;;;;;;5071128;28;20488;-74
2022/08/11 13:07:44;;;;;;;1.45;1.35;;;;;;;;;;5071853;28;20060;-73
2022/08/11 13:12:46;;;;;;;5.65;1.40;;;;;;;;;;5070547;28;20560;-73
2022/08/11 13:13:04;;;;;;;3.50;1.52;;;;;;;;;;5078683;28;20060;-72
2022/08/11 13:15:51;;;;;;;4.10;1.60;;;;;;;;;;5091418;28;20057;-71
2022/08/11 13:18:22;;;;;;;1.65;1.30;;;;;;;;;;5076721;28;20063;-71
2022/08/11 13:20:52;;;;;;;2.28;1.23;;;;;;;;;;5071560;28;20053;-73
2022/08/11 13:23:19;;;;;;;1.40;1.20;;;;;;;;;;5087699;28;20053;-75
2022/08/11 13:25:45;;;;;;;1.45;1.25;;;;;;;;;;5071921;28;20053;-71
2022/08/11 13:28:12;;;;;;;2.20;1.40;;;;;;;;;;5072014;28;20045;-72
2022/08/11 13:33:24;;;;;;;1.30;1.20;;;;;;;;;;5084689;28;20052;-71
2022/08/11 13:35:51;;;;;;;2.05;1.65;;;;;;;;;;5091755;28;20056;-72
2022/08/11 13:38:20;;;;;;;2.00;1.50;;;;;;;;;;5090221;28;20059;-70
2022/08/11 13:40:51;;;;;;;1.50;1.40;;;;;;;;;;5088181;28;20049;-70
2022/08/11 13:43:22;;;;;;;2.70;1.40;;;;;;;;;;5095933;28;20060;-69
2022/08/11 13:45:48;;;;;;;1.52;1.30;;;;;;;;;;5092036;28;20054;-70
2022/08/11 13:48:15;;;;;;;2.65;1.50;;;;;;;;;;5090305;28;20514;-71
2022/08/11 13:53:30;;;;;;;1.73;1.63;;;;;;;;;;5090982;28;20053;-71
2022/08/11 13:55:59;;;;;;;1.52;1.30;;;;;;;;;;5091166;28;20488;-73
2022/08/11 13:58:26;;;;;;;2.55;1.40;;;;;;;;;;5087998;28;20054;-70
2022/08/11 14:01:08;;;;;;;1.58;1.20;;;;;;;;;;5091307;28;20056;-71
2022/08/11 14:04:03;;;;;;;2.67;1.45;;;;;;;;;;5090894;27;20044;-73
2022/08/11 14:06:50;;;;;;;3.03;1.80;;;;;;;;;;5091193;28;20060;-72
2022/08/11 14:09:21;;;;;;;2.65;1.58;;;;;;;;;;5088194;28;20504;-74
2022/08/11 14:14:55;;;;;;;1.80;1.70;;;;;;;;;;5083205;28;20456;-74
2022/08/11 14:17:21;;;;;;;1.88;1.23;;;;;;;;;;5077420;28;20059;-72
2022/08/11 14:20:09;;;;;;;4.03;1.48;;;;;;;;;;5091465;28;20431;-72
2022/08/11 14:22:56;;;;;;;1.77;1.38;;;;;;;;;;5073298;28;20068;-72
2022/08/11 14:25:22;;;;;;;1.52;1.30;;;;;;;;;;5087708;28;20587;-71
2022/08/11 14:28:08;;;;;;;2.85;2.08;;;;;;;;;;5084641;28;20049;-70
2022/08/11 14:30:55;;;;;;;1.80;1.45;;;;;;;;;;5090184;28;20488;-71
2022/08/11 14:33:27;;;;;;;3.50;1.20;;;;;;;;;;5093852;28;20059;-71
2022/08/11 14:36:14;;;;;;;1.60;1.50;;;;;;;;;;5098020;28;20057;-72
2022/08/11 14:38:41;;;;;;;2.55;1.60;;;;;;;;;;5094791;28;20059;-73
2022/08/11 14:49:27;;;;;;;1.25;1.15;;;;;;;;;;5088982;28;20175;-71
2022/08/11 14:51:54;;;;;;;3.20;1.50;;;;;;;;;;5097091;28;20041;-71
2022/08/11 14:57:09;;;;;;;5.55;1.67;;;;;;;;;;5085328;28;20084;-73
2022/08/11 14:59:36;;;;;;;2.67;1.38;;;;;;;;;;5092781;28;20045;-72
2022/08/11 15:04:54;;;;;;;2.35;1.27;;;;;;;;;;5094520;27;20488;-75
2022/08/11 15:07:28;;;;;;;1.33;1.23;;;;;;;;;;5092170;28;20110;-73
2022/08/11 15:09:58;;;;;;;2.47;1.27;;;;;;;;;;5091067;28;20052;-72
2022/08/11 15:12:40;;;;;;;1.50;1.40;;;;;;;;;;5083131;28;20076;-72
2022/08/11 15:17:55;;;;;;;2.38;1.30;;;;;;;;;;5088460;28;20063;-73
2022/08/11 15:25:56;;;;;;;1.63;1.33;;;;;;;;;;5088620;28;20582;-71
2022/08/11 15:39:33;;;;;;;2.70;1.20;;;;;;;;;;5094023;28;20454;-72
2022/08/11 15:47:43;;;;;;;1.30;1.20;;;;;;;;;;5093504;28;20060;-72
2022/08/11 15:50:13;;;;;;;1.50;1.40;;;;;;;;;;5090410;28;20056;-71
2022/08/11 15:52:52;;;;;;;4.55;1.48;;;;;;;;;;5093206;28;20048;-73
2022/08/11 15:55:20;;;;;;;2.53;1.67;;;;;;;;;;5089532;28;20487;-72
2022/08/11 16:06:35;;;;;;;18.52;1.50;;;;;;;;;;5086952;28;20056;-69
2022/08/11 16:09:04;;;;;;;6.80;2.95;;;;;;;;;;5092141;28;20143;-73
2022/08/11 16:11:44;;;;;;;1.52;1.42;;;;;;;;;;5093261;28;20087;-72
2022/08/11 16:16:57;;;;;;;2.80;1.42;;;;;;;;;;5092007;28;20044;-72
2022/08/11 16:19:25;;;;;;;16.38;1.55;;;;;;;;;;5085207;28;20063;-71
2022/08/11 16:21:54;;;;;;;3.05;1.33;;;;;;;;;;5093063;28;20559;-74
2022/08/11 16:24:21;;;;;;;2.47;1.40;;;;;;;;;;5084158;28;20044;-71
2022/08/11 16:27:08;;;;;;;3.00;1.20;;;;;;;;;;5082737;28;20053;-73
2022/08/11 16:29:42;;;;;;;2.95;1.80;;;;;;;;;;5090425;28;20055;-73
2022/08/11 16:32:17;;;;;;;3.40;2.00;;;;;;;;;;5091043;28;20136;-73
2022/08/11 16:40:17;;;;;;;3.50;1.38;;;;;;;;;;5079606;28;20056;-72
2022/08/11 16:48:27;;;;;;;1.38;1.25;;;;;;;;;;5087800;28;20519;-72
2022/08/11 16:51:03;;;;;;;15.15;2.22;;;;;;;;;;5087731;28;20609;-71
2022/08/11 16:53:30;;;;;;;1.52;1.40;;;;;;;;;;5091207;28;20138;-70
2022/08/11 16:56:20;;;;;;;10.07;1.65;;;;;;;;;;5089433;28;20095;-69
2022/08/11 17:01:36;;;;;;;1.73;1.35;;;;;;;;;;5083161;28;20143;-70
2022/08/11 17:13:10;;;;;;;2.55;1.58;;;;;;;;;;5099010;28;20158;-69
2022/08/11 17:18:42;;;;;;;2.58;1.55;;;;;;;;;;5093871;28;20053;-70
2022/08/11 17:21:11;;;;;;;2.97;1.17;;;;;;;;;;5087064;28;20088;-72
2022/08/11 17:23:51;;;;;;;2.42;1.10;;;;;;;;;;5091251;28;20049;-73
2022/08/11 17:26:52;;;;;;;6.65;1.73;;;;;;;;;;5092808;28;20049;-73
2022/08/11 17:29:13;;;;;;;;;;;;;;;;;;5084493;28;20518;-74
2022/08/11 17:37:17;;;;;;;1.67;1.30;;;;;;;;;;5091194;28;20053;-71
2022/08/11 17:39:44;;;;;;;1.73;1.10;;;;;;;;;;5091340;28;20056;-72
2022/08/11 17:50:35;;;;;;;2.72;1.02;;;;;;;;;;5104455;28;20047;-72
2022/08/11 18:01:35;;;;;;;1.38;1.05;;;;;;;;;;5082585;28;20053;-73
2022/08/11 18:04:03;;;;;;;1.63;1.00;;;;;;;;;;5089228;28;20056;-71
2022/08/11 18:06:30;;;;;;;2.22;1.35;;;;;;;;;;5088337;28;20051;-73
